KLLJ

Challis Airport

Challis, Idaho, USA
METAR KLLJ 180255Z AUTO 00000KT 10SM BKN045 OVC055 M03/M11 A3013 RMK AO2 SLP253 T10331106 53007
Observed Flight Rules
Dec-18 @ 02:55 UTC (16 minutes ago) Visual Flight Rules
Wind Visibility Clouds
Calm 10 miles
  • Broken at 4,500' AGL
  • Overcast at 5,500' AGL
Temperatures Readings
Current -3°C / 27°F
Dewpoint -11°C / 12°F
Humidity 54%
Altimeter 30.13" Hg
Pressure 1025.3 hPa
Elevation 1536
METAR KLLJ 180255Z AUTO 00000KT 10SM BKN045 OVC055 M03/M11 A3013 RMK AO2 SLP253 T10331106 53007
Observed Flight Rules
Dec-18 @ 02:55 UTC
(16 minutes ago)
VFR
Wind Visibility
Calm 10 miles
Clouds
  • Broken at 4,500' AGL
  • Overcast at 5,500' AGL
Temperature Dewpoint
-3°C / 27°F -11°C / 12°F
Humidity Altimeter Pressure
54% 30.13" Hg 1025.3 hPa